createdAt,value
2019-01-15T00:00:14.582Z,12.37
2019-01-15T00:02:42.900Z,6.17
2019-01-15T00:05:11.481Z,8.57
2019-01-15T00:07:39.718Z,8.30
2019-01-15T00:10:09.177Z,7.03
2019-01-15T00:12:37.420Z,4.87
2019-01-15T00:15:07.586Z,5.60
2019-01-15T00:17:35.809Z,9.03
2019-01-15T00:20:07.129Z,9.33
2019-01-15T00:22:35.367Z,6.83
2019-01-15T00:25:04.695Z,4.93
2019-01-15T00:27:32.925Z,5.33
2019-01-15T00:30:01.147Z,4.77
2019-01-15T00:32:29.376Z,10.97
2019-01-15T00:34:57.605Z,8.67
2019-01-15T00:37:25.845Z,8.93
2019-01-15T00:39:54.082Z,7.37
2019-01-15T00:42:22.309Z,8.90
2019-01-15T00:44:50.529Z,7.23
2019-01-15T00:47:18.745Z,9.23
2019-01-15T00:49:46.984Z,4.37
2019-01-15T00:52:15.210Z,6.77
2019-01-15T00:54:43.455Z,8.50
2019-01-15T00:57:11.678Z,5.57
2019-01-15T00:59:39.989Z,5.23
2019-01-15T01:02:08.218Z,4.83
2019-01-15T01:04:36.520Z,6.63
2019-01-15T01:07:05.022Z,14.50
2019-01-15T01:09:33.249Z,3.03
2019-01-15T01:12:01.474Z,6.87
2019-01-15T01:14:29.705Z,7.90
2019-01-15T01:16:57.995Z,5.00
2019-01-15T01:19:26.226Z,6.53
2019-01-15T01:21:54.460Z,8.13
2019-01-15T01:24:22.677Z,6.30
2019-01-15T01:26:50.904Z,7.17
2019-01-15T01:29:19.117Z,9.03
2019-01-15T01:31:47.346Z,8.00
2019-01-15T01:34:15.569Z,9.80
2019-01-15T01:36:43.809Z,5.43
2019-01-15T01:39:12.017Z,8.23
2019-01-15T01:41:40.253Z,5.73
2019-01-15T01:44:08.466Z,8.37
2019-01-15T01:46:36.770Z,7.47
2019-01-15T01:49:05.032Z,9.37
2019-01-15T01:51:33.237Z,5.87
2019-01-15T01:54:01.461Z,4.77
2019-01-15T01:56:29.725Z,6.53
2019-01-15T01:58:57.945Z,6.03
2019-01-15T02:01:26.182Z,8.03
2019-01-15T02:03:54.405Z,4.97
2019-01-15T02:06:22.688Z,7.57
2019-01-15T02:08:50.929Z,8.33
2019-01-15T02:11:19.169Z,9.83
2019-01-15T02:13:47.381Z,9.47
2019-01-15T02:16:15.610Z,9.50
2019-01-15T02:18:43.828Z,7.27
2019-01-15T02:21:12.046Z,8.47
2019-01-15T02:23:40.282Z,5.60
2019-01-15T02:26:08.509Z,9.23
2019-01-15T02:28:36.753Z,12.73
2019-01-15T02:31:04.981Z,11.83
2019-01-15T02:33:33.202Z,8.10
2019-01-15T02:36:01.434Z,9.03
2019-01-15T02:38:29.657Z,8.57
2019-01-15T02:40:57.878Z,10.83
2019-01-15T02:43:26.117Z,8.97
2019-01-15T02:45:54.384Z,10.03
2019-01-15T02:48:22.614Z,8.80
2019-01-15T02:50:50.925Z,9.90
2019-01-15T02:53:19.158Z,6.53
2019-01-15T02:55:47.373Z,10.47
2019-01-15T02:58:15.610Z,10.00
2019-01-15T03:00:43.837Z,7.47
2019-01-15T03:03:12.078Z,10.17
2019-01-15T03:05:40.311Z,4.80
2019-01-15T03:08:08.545Z,5.77
2019-01-15T03:10:36.757Z,9.43
2019-01-15T03:13:04.988Z,8.03
2019-01-15T03:15:33.209Z,10.80
2019-01-15T03:18:01.564Z,9.57
2019-01-15T03:20:29.785Z,5.50
2019-01-15T03:22:58.013Z,10.63
2019-01-15T03:25:26.251Z,6.33
2019-01-15T03:27:54.470Z,7.03
2019-01-15T03:30:23.312Z,11.93
2019-01-15T03:32:51.630Z,4.57
2019-01-15T03:35:19.861Z,9.07
2019-01-15T03:37:48.104Z,9.57
2019-01-15T03:40:18.578Z,6.70
2019-01-15T03:42:46.837Z,8.43
2019-01-15T03:45:15.114Z,8.23
2019-01-15T03:47:43.340Z,9.87
2019-01-15T03:50:11.576Z,11.17
2019-01-15T03:52:39.789Z,10.77
2019-01-15T03:55:09.976Z,11.13
2019-01-15T03:57:38.222Z,7.57
2019-01-15T04:00:18.019Z,8.70
2019-01-15T04:02:46.497Z,8.60
2019-01-15T04:05:16.397Z,8.13
2019-01-15T04:07:45.155Z,8.17
2019-01-15T04:10:13.374Z,10.87
2019-01-15T04:12:41.605Z,5.93
2019-01-15T04:15:12.489Z,6.83
2019-01-15T04:17:40.726Z,7.37
2019-01-15T04:20:12.156Z,10.13
2019-01-15T04:22:40.389Z,7.97
2019-01-15T04:25:09.355Z,5.10
2019-01-15T04:27:37.702Z,6.93
2019-01-15T04:30:11.977Z,8.33
2019-01-15T04:32:40.225Z,10.67
2019-01-15T04:35:09.382Z,9.63
2019-01-15T04:37:37.617Z,9.50
2019-01-15T04:40:11.955Z,10.27
2019-01-15T04:42:40.245Z,6.43
2019-01-15T04:45:13.043Z,7.27
2019-01-15T04:47:41.334Z,4.83
2019-01-15T04:50:10.014Z,11.57
2019-01-15T04:52:39.342Z,9.77
2019-01-15T04:55:09.668Z,6.13
2019-01-15T04:57:37.905Z,7.60
2019-01-15T05:00:09.387Z,5.57
2019-01-15T05:02:38.782Z,5.50
2019-01-15T05:05:07.541Z,11.57
2019-01-15T05:07:35.780Z,5.43
2019-01-15T05:10:06.637Z,6.73
2019-01-15T05:12:34.862Z,8.73
2019-01-15T05:15:03.566Z,10.53
2019-01-15T05:17:31.817Z,5.13
2019-01-15T05:20:00.075Z,9.30
2019-01-15T05:22:28.357Z,7.67
2019-01-15T05:24:56.588Z,11.93
2019-01-15T05:27:24.851Z,6.40
2019-01-15T05:29:53.125Z,7.47
2019-01-15T05:32:21.333Z,8.33
2019-01-15T05:34:49.566Z,5.90
2019-01-15T05:37:17.785Z,8.67
2019-01-15T05:39:46.028Z,7.10
2019-01-15T05:42:14.253Z,9.83
2019-01-15T05:44:42.484Z,6.60
2019-01-15T05:47:10.767Z,5.13
2019-01-15T05:49:39.025Z,7.63
2019-01-15T05:52:07.251Z,4.60
2019-01-15T05:54:35.488Z,9.93
2019-01-15T05:57:03.720Z,6.23
2019-01-15T05:59:31.948Z,7.60
2019-01-15T06:02:00.173Z,7.23
2019-01-15T06:04:28.391Z,6.97
2019-01-15T06:06:56.620Z,8.47
2019-01-15T06:09:24.849Z,7.40
2019-01-15T06:11:53.242Z,8.83
2019-01-15T06:14:21.484Z,9.33
2019-01-15T06:16:49.801Z,10.33
2019-01-15T06:19:18.021Z,10.73
2019-01-15T06:21:46.270Z,8.90
2019-01-15T06:24:14.484Z,12.10
2019-01-15T06:26:42.714Z,11.13
2019-01-15T06:29:11.004Z,9.07
2019-01-15T06:31:39.260Z,11.87
2019-01-15T06:34:07.490Z,10.70
2019-01-15T06:36:35.722Z,11.67
2019-01-15T06:39:06.755Z,10.87
2019-01-15T06:41:36.721Z,14.63
2019-01-15T06:44:05.025Z,17.07
2019-01-15T06:46:33.245Z,17.07
2019-01-15T06:49:01.481Z,14.93
2019-01-15T06:51:29.746Z,13.07
2019-01-15T06:53:58.033Z,16.33
2019-01-15T06:56:26.290Z,14.73
2019-01-15T06:58:54.521Z,14.87
2019-01-15T07:01:22.835Z,14.50
2019-01-15T07:03:51.152Z,15.73
2019-01-15T07:06:19.454Z,18.47
2019-01-15T07:08:47.689Z,15.43
2019-01-15T07:11:15.995Z,17.57
2019-01-15T07:13:44.255Z,16.70
2019-01-15T07:16:13.056Z,17.87
2019-01-15T07:18:41.385Z,19.40
2019-01-15T07:21:09.658Z,24.03
2019-01-15T07:23:37.916Z,22.97
2019-01-15T07:26:06.203Z,26.60
2019-01-15T07:28:34.438Z,25.50
2019-01-15T07:31:02.682Z,26.57
2019-01-15T07:33:30.914Z,22.63
2019-01-15T07:35:59.136Z,24.23
2019-01-15T07:38:27.377Z,27.03
2019-01-15T07:40:55.591Z,22.47
2019-01-15T07:43:23.966Z,23.30
2019-01-15T07:45:52.175Z,25.23
2019-01-15T07:48:20.409Z,31.20
2019-01-15T07:50:48.651Z,26.47
2019-01-15T07:53:16.891Z,26.47
2019-01-15T07:55:45.134Z,22.40
2019-01-15T07:58:15.314Z,26.93
2019-01-15T08:00:43.623Z,20.90
2019-01-15T08:03:11.854Z,27.97
2019-01-15T08:05:40.160Z,26.13
2019-01-15T08:08:08.465Z,26.43
2019-01-15T08:10:36.709Z,30.43
2019-01-15T08:13:04.999Z,30.23
2019-01-15T08:15:33.246Z,29.40
2019-01-15T08:18:01.487Z,26.50
2019-01-15T08:20:29.710Z,28.93
2019-01-15T08:22:57.949Z,28.07
2019-01-15T08:25:26.210Z,27.57
2019-01-15T08:27:54.453Z,22.63
2019-01-15T08:30:27.756Z,32.53
2019-01-15T08:32:55.977Z,29.30
2019-01-15T08:35:24.237Z,24.87
2019-01-15T08:37:52.469Z,27.20
2019-01-15T08:40:20.739Z,24.30
2019-01-15T08:42:48.961Z,24.97
2019-01-15T08:45:17.875Z,25.17
2019-01-15T08:47:47.756Z,29.83
2019-01-15T08:50:24.725Z,23.37
2019-01-15T08:52:55.602Z,23.93
2019-01-15T08:55:23.905Z,22.17
2019-01-15T08:57:52.128Z,33.90
2019-01-15T09:00:20.360Z,27.90
2019-01-15T09:02:48.600Z,29.87
2019-01-15T09:05:16.897Z,30.50
2019-01-15T09:07:45.140Z,24.53
2019-01-15T09:10:16.722Z,31.57
2019-01-15T09:12:44.958Z,27.33
2019-01-15T09:15:18.826Z,31.93
2019-01-15T09:17:47.143Z,27.00
2019-01-15T09:20:17.377Z,27.00
2019-01-15T09:22:45.686Z,27.60
2019-01-15T09:25:13.919Z,26.83
2019-01-15T09:27:42.221Z,32.40
2019-01-15T09:30:13.985Z,29.23
2019-01-15T09:32:42.225Z,27.50
2019-01-15T09:35:10.485Z,29.87
2019-01-15T09:37:39.297Z,25.97
2019-01-15T09:40:10.854Z,26.07
2019-01-15T09:42:39.089Z,24.57
2019-01-15T09:45:13.102Z,25.93
2019-01-15T09:47:42.982Z,23.83
2019-01-15T09:50:12.047Z,19.83
2019-01-15T09:52:40.380Z,24.80
2019-01-15T09:55:09.361Z,24.97
2019-01-15T09:57:37.604Z,19.83
2019-01-15T10:00:12.311Z,19.37
2019-01-15T10:02:40.561Z,21.87
2019-01-15T10:05:08.909Z,21.27
2019-01-15T10:07:37.422Z,22.30
2019-01-15T10:10:08.936Z,23.10
2019-01-15T10:12:37.287Z,22.23
2019-01-15T10:15:14.635Z,22.60
2019-01-15T10:17:42.883Z,16.73
2019-01-15T10:20:12.830Z,20.40
2019-01-15T10:22:53.050Z,18.20
2019-01-15T10:25:25.615Z,21.43
2019-01-15T10:27:54.389Z,18.37
2019-01-15T10:30:30.263Z,21.73
2019-01-15T10:33:05.090Z,14.13
2019-01-15T10:35:36.809Z,14.73
2019-01-15T10:38:05.105Z,17.07
2019-01-15T10:40:33.390Z,24.37
2019-01-15T10:43:01.625Z,16.73
2019-01-15T10:45:31.391Z,16.33
2019-01-15T10:47:59.610Z,17.03
2019-01-15T10:50:27.845Z,14.47
2019-01-15T10:52:58.853Z,13.50
2019-01-15T10:55:27.139Z,20.23
2019-01-15T10:57:55.354Z,14.83
2019-01-15T11:00:23.917Z,17.17
2019-01-15T11:02:52.122Z,14.63
2019-01-15T11:05:20.357Z,16.63
2019-01-15T11:07:48.574Z,13.60
2019-01-15T11:10:16.845Z,14.63
2019-01-15T11:12:45.081Z,15.27
2019-01-15T11:15:13.338Z,14.63
2019-01-15T11:17:41.544Z,14.60
2019-01-15T11:20:13.057Z,19.10
2019-01-15T11:22:41.256Z,15.13
2019-01-15T11:25:11.251Z,11.03
2019-01-15T11:27:39.642Z,15.57
2019-01-15T11:30:10.297Z,12.80
2019-01-15T11:32:38.544Z,16.70
2019-01-15T11:35:09.492Z,11.43
2019-01-15T11:37:37.733Z,15.07
2019-01-15T11:40:14.682Z,13.63
2019-01-15T11:42:42.889Z,18.33
2019-01-15T11:45:13.249Z,12.57
2019-01-15T11:47:41.582Z,12.47
2019-01-15T11:50:15.389Z,13.60
2019-01-15T11:52:43.649Z,14.90
2019-01-15T11:55:11.987Z,14.23
2019-01-15T11:57:40.301Z,15.03
2019-01-15T12:00:11.801Z,11.97
2019-01-15T12:02:41.166Z,14.07
2019-01-15T12:05:14.042Z,13.63
2019-01-15T12:07:43.931Z,13.33
2019-01-15T12:10:16.510Z,14.87
2019-01-15T12:12:46.383Z,19.47
2019-01-15T12:15:22.062Z,15.37
2019-01-15T12:17:51.938Z,13.47
2019-01-15T12:20:24.536Z,21.40
2019-01-15T12:23:03.581Z,14.47
2019-01-15T12:25:36.313Z,16.30
2019-01-15T12:28:08.882Z,15.33
2019-01-15T12:30:44.645Z,16.47
2019-01-15T12:33:20.182Z,17.97
2019-01-15T12:35:53.075Z,16.80
2019-01-15T12:38:25.671Z,18.33
2019-01-15T12:40:59.605Z,15.80
2019-01-15T12:43:35.779Z,14.23
2019-01-15T12:46:05.638Z,21.37
2019-01-15T12:48:50.385Z,11.20
2019-01-15T12:51:20.253Z,19.17
2019-01-15T12:53:58.869Z,17.10
2019-01-15T12:56:37.773Z,22.50
2019-01-15T12:59:07.616Z,19.53
2019-01-15T13:01:43.202Z,21.33
2019-01-15T13:04:30.934Z,17.37
2019-01-15T13:07:00.801Z,20.03
2019-01-15T13:09:36.748Z,22.30
2019-01-15T13:12:20.925Z,18.20
2019-01-15T13:14:50.952Z,19.00
2019-01-15T13:17:36.965Z,20.47
2019-01-15T13:20:12.788Z,15.90
2019-01-15T13:22:58.991Z,17.10
2019-01-15T13:25:34.877Z,18.10
2019-01-15T13:28:04.939Z,14.47
2019-01-15T13:30:50.769Z,17.87
2019-01-15T13:33:20.701Z,14.60
2019-01-15T13:35:50.585Z,16.57
2019-01-15T13:38:35.318Z,16.57
2019-01-15T13:41:14.264Z,11.87
2019-01-15T13:43:44.137Z,15.20
2019-01-15T13:46:22.862Z,15.73
2019-01-15T13:48:52.743Z,16.97
2019-01-15T13:51:25.273Z,17.10
2019-01-15T13:54:13.032Z,13.80
2019-01-15T13:56:52.037Z,12.80
2019-01-15T13:59:27.838Z,10.47
2019-01-15T14:01:57.761Z,13.30
2019-01-15T14:04:39.531Z,16.47
2019-01-15T14:07:25.690Z,13.90
2019-01-15T14:10:07.737Z,11.50
2019-01-15T14:12:37.607Z,13.50
2019-01-15T14:15:17.053Z,11.47
2019-01-15T14:17:55.785Z,12.97
2019-01-15T14:20:25.654Z,11.13
2019-01-15T14:23:04.301Z,15.57
2019-01-15T14:25:34.185Z,12.40
2019-01-15T14:28:20.098Z,13.23
2019-01-15T14:30:52.932Z,11.23
2019-01-15T14:33:28.645Z,8.33
2019-01-15T14:36:26.069Z,14.43
2019-01-15T14:39:14.015Z,12.47
2019-01-15T14:41:43.878Z,12.50
2019-01-15T14:44:31.633Z,10.83
2019-01-15T14:47:16.243Z,10.87
2019-01-15T14:49:55.041Z,12.97
2019-01-15T14:52:36.798Z,10.67
2019-01-15T14:55:23.809Z,13.17
2019-01-15T14:58:10.052Z,11.30
2019-01-15T15:00:42.759Z,8.73
2019-01-15T15:03:27.553Z,11.23
2019-01-15T15:05:57.435Z,10.53
2019-01-15T15:08:27.286Z,9.40
2019-01-15T15:11:05.914Z,9.97
2019-01-15T15:13:47.574Z,8.57
2019-01-15T15:16:29.577Z,9.90
2019-01-15T15:18:59.436Z,13.13
2019-01-15T15:21:45.284Z,8.10
2019-01-15T15:24:21.110Z,9.57
2019-01-15T15:26:50.977Z,8.17
2019-01-15T15:29:26.729Z,10.57
2019-01-15T15:32:08.707Z,13.97
2019-01-15T15:34:38.580Z,12.50
2019-01-15T15:37:24.743Z,9.67
2019-01-15T15:39:54.696Z,10.30
2019-01-15T15:42:24.561Z,11.83
2019-01-15T15:44:54.429Z,13.90
2019-01-15T15:47:24.305Z,10.90
2019-01-15T15:49:56.876Z,10.87
2019-01-15T15:52:29.455Z,10.33
2019-01-15T15:55:15.351Z,8.07
2019-01-15T15:57:54.317Z,9.97
2019-01-15T16:00:24.418Z,10.43
2019-01-15T16:03:10.379Z,10.30
2019-01-15T16:05:43.731Z,13.73
2019-01-15T16:08:16.317Z,10.40
2019-01-15T16:10:49.166Z,9.93
2019-01-15T16:13:19.052Z,10.47
2019-01-15T16:15:54.626Z,10.20
2019-01-15T16:18:36.058Z,11.17
2019-01-15T16:21:21.950Z,11.83
2019-01-15T16:24:06.857Z,13.87
2019-01-15T16:26:42.468Z,13.23
2019-01-15T16:29:13.144Z,11.97
2019-01-15T16:31:46.078Z,8.97
2019-01-15T16:34:18.593Z,9.23
2019-01-15T16:36:57.292Z,11.27
2019-01-15T16:39:29.966Z,8.33
2019-01-15T16:42:08.941Z,10.53
2019-01-15T16:44:44.825Z,13.47
2019-01-15T16:47:17.665Z,10.20
2019-01-15T16:50:11.263Z,11.17
2019-01-15T16:52:36.938Z,13.17
2019-01-15T16:55:09.915Z,14.17
2019-01-15T16:57:42.605Z,8.20
2019-01-15T17:00:31.901Z,11.43
2019-01-15T17:03:01.798Z,10.43
2019-01-15T17:05:43.438Z,9.53
2019-01-15T17:08:19.013Z,12.90
2019-01-15T17:10:51.590Z,11.33
2019-01-15T17:13:21.453Z,8.77
2019-01-15T17:16:03.412Z,10.50
2019-01-15T17:18:49.672Z,9.07
2019-01-15T17:21:19.526Z,8.60
2019-01-15T17:23:52.124Z,10.60
2019-01-15T17:26:22.002Z,15.53
2019-01-15T17:28:57.880Z,10.40
2019-01-15T17:31:33.585Z,10.43
2019-01-15T17:34:03.545Z,9.50
2019-01-15T17:36:36.377Z,9.90
2019-01-15T17:39:25.078Z,12.67
2019-01-15T17:42:11.461Z,16.43
2019-01-15T17:44:41.374Z,8.67
2019-01-15T17:47:16.910Z,10.77
2019-01-15T17:49:53.014Z,9.70
2019-01-15T17:52:43.598Z,12.07
2019-01-15T17:55:26.293Z,10.73
2019-01-15T17:58:02.140Z,9.33
2019-01-15T18:00:32.018Z,11.70
2019-01-15T18:03:04.649Z,10.40
2019-01-15T18:05:34.547Z,9.83
2019-01-15T18:08:10.305Z,8.90
2019-01-15T18:10:40.256Z,10.60
2019-01-15T18:13:16.211Z,10.07
2019-01-15T18:16:04.026Z,10.93
2019-01-15T18:18:36.584Z,8.10
2019-01-15T18:21:06.909Z,11.80
2019-01-15T18:23:42.858Z,13.00
2019-01-15T18:26:15.553Z,9.93
2019-01-15T18:29:07.698Z,8.65
2019-01-15T18:31:38.588Z,12.23
2019-01-15T18:34:13.855Z,10.03
2019-01-15T18:36:52.426Z,10.30
2019-01-15T18:39:22.349Z,11.60
2019-01-15T18:42:10.071Z,14.93
2019-01-15T18:44:54.798Z,13.33
2019-01-15T18:47:24.669Z,8.97
2019-01-15T18:50:00.627Z,14.77
2019-01-15T18:52:46.946Z,8.67
2019-01-15T18:55:35.447Z,13.73
2019-01-15T18:58:22.064Z,14.77
2019-01-15T19:00:54.726Z,11.07
2019-01-15T19:03:24.616Z,9.10
2019-01-15T19:06:10.802Z,11.73
2019-01-15T19:08:49.361Z,11.93
2019-01-15T19:11:19.679Z,12.50
2019-01-15T19:13:52.265Z,12.53
2019-01-15T19:16:24.769Z,13.40
2019-01-15T19:19:13.403Z,11.87
2019-01-15T19:22:01.461Z,11.37
2019-01-15T19:24:47.653Z,14.10
2019-01-15T19:27:23.498Z,13.77
2019-01-15T19:29:53.453Z,13.70
2019-01-15T19:32:35.262Z,11.77
2019-01-15T19:35:08.182Z,12.75
2019-01-15T19:37:41.049Z,12.47
2019-01-15T19:40:13.970Z,13.97
2019-01-15T19:42:49.301Z,12.87
2019-01-15T19:45:35.385Z,14.83
2019-01-15T19:48:05.257Z,14.87
2019-01-15T19:50:35.137Z,16.77
2019-01-15T19:53:05.024Z,15.67
2019-01-15T19:55:46.584Z,13.37
2019-01-15T19:58:16.469Z,14.20
2019-01-15T20:00:46.341Z,17.87
2019-01-15T20:03:19.141Z,16.07
2019-01-15T20:05:57.842Z,16.57
2019-01-15T20:08:43.880Z,17.17
2019-01-15T20:11:13.749Z,16.77
2019-01-15T20:13:46.618Z,13.43
2019-01-15T20:16:16.515Z,15.17
2019-01-15T20:18:46.563Z,15.60
2019-01-15T20:21:28.666Z,16.27
2019-01-15T20:24:04.217Z,18.30
2019-01-15T20:26:49.112Z,15.27
2019-01-15T20:29:18.997Z,14.03
2019-01-15T20:31:49.301Z,13.80
2019-01-15T20:34:28.413Z,17.57
2019-01-15T20:37:00.994Z,14.53
2019-01-15T20:39:30.853Z,20.77
2019-01-15T20:42:03.728Z,14.93
2019-01-15T20:44:45.395Z,17.07
2019-01-15T20:47:33.136Z,13.63
2019-01-15T20:50:03.023Z,16.93
2019-01-15T20:52:38.706Z,14.27
2019-01-15T20:55:10.727Z,16.37
2019-01-15T20:57:49.834Z,13.13
2019-01-15T21:00:25.606Z,15.40
2019-01-15T21:03:04.610Z,14.20
2019-01-15T21:05:50.617Z,13.83
2019-01-15T21:08:20.488Z,14.20
2019-01-15T21:10:50.355Z,15.73
2019-01-15T21:13:35.058Z,13.30
2019-01-15T21:16:19.701Z,13.17
2019-01-15T21:19:04.405Z,16.77
2019-01-15T21:21:46.026Z,13.57
2019-01-15T21:24:24.756Z,15.80
2019-01-15T21:26:54.653Z,13.80
2019-01-15T21:29:24.506Z,13.73
2019-01-15T21:31:57.386Z,15.28
2019-01-15T21:34:30.065Z,14.23
2019-01-15T21:36:59.962Z,14.83
2019-01-15T21:39:45.922Z,14.77
2019-01-15T21:42:21.810Z,13.07
2019-01-15T21:45:03.545Z,13.50
2019-01-15T21:47:40.101Z,12.67
2019-01-15T21:50:08.835Z,13.37
2019-01-15T21:52:38.732Z,12.33
2019-01-15T21:55:17.263Z,12.10
2019-01-15T21:57:47.133Z,10.47
2019-01-15T22:00:31.844Z,12.93
2019-01-15T22:03:01.721Z,14.47
2019-01-15T22:05:31.593Z,14.17
2019-01-15T22:08:13.668Z,11.83
2019-01-15T22:10:59.278Z,13.65
2019-01-15T22:13:38.185Z,14.37
2019-01-15T22:16:10.955Z,15.73
2019-01-15T22:18:46.869Z,15.63
2019-01-15T22:21:25.553Z,15.40
2019-01-15T22:24:10.596Z,14.83
2019-01-15T22:26:40.467Z,17.67
2019-01-15T22:29:10.353Z,16.00
2019-01-15T22:31:58.439Z,13.93
2019-01-15T22:34:44.348Z,15.37
2019-01-15T22:37:14.222Z,14.03
2019-01-15T22:39:49.799Z,11.77
2019-01-15T22:42:25.064Z,12.30
2019-01-15T22:45:10.077Z,12.27
2019-01-15T22:47:39.938Z,15.67
2019-01-15T22:50:15.595Z,14.03
2019-01-15T22:52:45.458Z,12.37
2019-01-15T22:55:15.325Z,14.33
2019-01-15T22:57:57.029Z,12.80
2019-01-15T23:00:50.661Z,16.27
2019-01-15T23:03:22.946Z,12.07
2019-01-15T23:06:08.953Z,12.17
2019-01-15T23:08:53.858Z,14.13
2019-01-15T23:11:40.321Z,13.17
2019-01-15T23:14:26.492Z,12.50
2019-01-15T23:17:02.316Z,12.17
2019-01-15T23:19:48.440Z,10.87
2019-01-15T23:22:18.322Z,11.53
2019-01-15T23:24:48.177Z,12.58
2019-01-15T23:27:24.033Z,14.10
2019-01-15T23:29:53.889Z,11.47
2019-01-15T23:32:26.496Z,10.93
2019-01-15T23:34:59.141Z,11.43
2019-01-15T23:37:34.962Z,14.63
2019-01-15T23:40:04.838Z,12.40
2019-01-15T23:42:43.598Z,11.93
2019-01-15T23:45:28.542Z,10.27
2019-01-15T23:48:09.663Z,12.33
2019-01-15T23:50:38.427Z,11.13
2019-01-15T23:53:17.080Z,13.43
2019-01-15T23:55:47.287Z,10.67
2019-01-15T23:58:19.870Z,10.93
